Terminal Aerodrome Forecast
Issued by NWS Lake Charles, LA

Home | Current Version | Previous Version | Text Only | Print | Product List | Glossary On
Versions: 1 2 3 4 5 6 7 8 9 10 11 12 13 14 15 16 17 18
000
FTUS44 KLCH 182000 AAA
TAFLFT
TAF AMD
KLFT 182001Z 1820/1918 VRB03KT P6SM VCSH SCT025 OVC200
      TEMPO 1820/1823 BKN025
     FM190000 00000KT P6SM OVC250
     FM190800 00000KT 5SM BR BKN250
     FM191300 09004KT P6SM FEW020 BKN250=

USA.gov is the U.S. government's official web portal to all federal, state and local government web resources and services.